createdAt,value
2023-05-02T00:01:20.369Z,12.11
2023-05-02T00:03:23.113Z,12.07
2023-05-02T00:05:25.812Z,12.04
2023-05-02T00:07:28.724Z,12.02
2023-05-02T00:09:31.347Z,12.01
2023-05-02T00:11:33.957Z,11.96
2023-05-02T00:13:36.532Z,11.96
2023-05-02T00:15:40.501Z,11.94
2023-05-02T00:17:43.621Z,11.91
2023-05-02T00:19:46.313Z,11.91
2023-05-02T00:21:49.810Z,11.88
2023-05-02T00:23:52.481Z,11.91
2023-05-02T00:25:55.056Z,11.88
2023-05-02T00:27:57.624Z,11.88
2023-05-02T00:30:00.991Z,11.89
2023-05-02T00:32:06.522Z,11.89
2023-05-02T00:34:09.103Z,11.85
2023-05-02T00:36:15.648Z,11.84
2023-05-02T00:38:18.205Z,11.83
2023-05-02T00:40:21.022Z,11.79
2023-05-02T00:42:23.625Z,11.77
2023-05-02T00:44:26.188Z,11.75
2023-05-02T00:46:28.906Z,11.74
2023-05-02T00:48:33.009Z,11.72
2023-05-02T00:50:37.269Z,11.72
2023-05-02T00:52:39.834Z,11.72
2023-05-02T00:54:43.212Z,11.71
2023-05-02T00:56:46.436Z,11.69
2023-05-02T00:58:49.092Z,11.69
2023-05-02T01:01:05.948Z,11.67
2023-05-02T01:03:18.460Z,11.63
2023-05-02T01:05:28.949Z,11.63
2023-05-02T01:07:48.053Z,11.62
2023-05-02T01:10:02.533Z,11.61
2023-05-02T01:12:11.404Z,11.58
2023-05-02T01:14:16.085Z,11.57
2023-05-02T01:16:21.264Z,11.59
2023-05-02T01:18:25.753Z,11.60
2023-05-02T01:20:31.753Z,11.59
2023-05-02T01:22:35.672Z,11.61
2023-05-02T01:24:49.949Z,11.59
2023-05-02T01:27:02.867Z,11.60
2023-05-02T01:29:09.454Z,11.62
2023-05-02T01:31:13.201Z,11.62
2023-05-02T01:33:18.265Z,11.62
2023-05-02T01:35:23.274Z,11.61
2023-05-02T01:37:28.505Z,11.63
2023-05-02T01:39:32.102Z,11.58
2023-05-02T01:41:36.744Z,11.55
2023-05-02T01:43:41.318Z,11.58
2023-05-02T01:45:48.235Z,11.54
2023-05-02T01:47:51.797Z,11.51
2023-05-02T01:49:54.461Z,11.49
2023-05-02T01:51:58.092Z,11.46
2023-05-02T01:54:04.201Z,11.44
2023-05-02T01:56:07.544Z,11.44
2023-05-02T01:58:11.471Z,11.41
2023-05-02T02:00:17.322Z,11.40
2023-05-02T02:02:22.386Z,11.40
2023-05-02T02:04:26.949Z,11.37
2023-05-02T02:06:29.656Z,11.38
2023-05-02T02:08:32.237Z,11.35
2023-05-02T02:10:41.148Z,11.35
2023-05-02T02:12:48.495Z,11.30
2023-05-02T02:14:57.135Z,11.31
2023-05-02T02:17:02.790Z,11.31
2023-05-02T02:19:11.249Z,11.31
2023-05-02T02:21:18.922Z,11.30
2023-05-02T02:23:24.453Z,11.26
2023-05-02T02:25:28.361Z,11.24
2023-05-02T02:27:31.145Z,11.26
2023-05-02T02:29:33.947Z,11.23
2023-05-02T02:31:39.121Z,11.22
2023-05-02T02:33:42.118Z,11.21
2023-05-02T02:35:59.468Z,11.13
2023-05-02T02:38:15.323Z,11.05
2023-05-02T02:40:22.914Z,11.00
2023-05-02T02:42:36.112Z,10.95
2023-05-02T02:44:47.137Z,10.97
2023-05-02T02:47:00.905Z,10.94
2023-05-02T02:49:16.231Z,10.91
2023-05-02T02:51:29.136Z,10.89
2023-05-02T02:53:41.986Z,10.88
2023-05-02T02:55:48.685Z,10.91
2023-05-02T02:58:00.262Z,10.89
2023-05-02T03:00:10.766Z,10.86
2023-05-02T03:02:16.074Z,10.86
2023-05-02T03:04:21.454Z,10.86
2023-05-02T03:06:26.096Z,10.87
2023-05-02T03:08:28.762Z,10.77
2023-05-02T03:10:31.329Z,10.76
2023-05-02T03:12:34.415Z,10.73
2023-05-02T03:14:37.286Z,10.72
2023-05-02T03:16:41.483Z,10.71
2023-05-02T03:18:44.204Z,10.70
2023-05-02T03:20:46.964Z,10.67
2023-05-02T03:22:50.897Z,10.67
2023-05-02T03:24:53.510Z,10.64
2023-05-02T03:26:56.730Z,10.59
2023-05-02T03:28:59.597Z,10.56
2023-05-02T03:31:02.344Z,10.52
2023-05-02T03:33:07.905Z,10.50
2023-05-02T03:35:10.925Z,10.48
2023-05-02T03:37:13.521Z,10.49
2023-05-02T03:39:17.549Z,10.46
2023-05-02T03:41:20.941Z,10.44
2023-05-02T03:43:23.589Z,10.42
2023-05-02T03:45:26.149Z,10.42
2023-05-02T03:47:28.732Z,10.40
2023-05-02T03:49:31.335Z,10.37
2023-05-02T03:51:35.605Z,10.38
2023-05-02T03:53:38.351Z,10.39
2023-05-02T03:55:42.759Z,10.41
2023-05-02T03:57:45.327Z,10.43
2023-05-02T03:59:48.149Z,10.42
2023-05-02T04:01:51.137Z,10.45
2023-05-02T04:03:53.853Z,10.51
2023-05-02T04:05:56.455Z,10.44
2023-05-02T04:07:59.031Z,10.41
2023-05-02T04:10:01.918Z,10.41
2023-05-02T04:12:06.266Z,10.44
2023-05-02T04:14:08.907Z,10.45
2023-05-02T04:16:11.505Z,10.46
2023-05-02T04:18:14.091Z,10.48
2023-05-02T04:20:16.737Z,10.52
2023-05-02T04:22:19.323Z,10.54
2023-05-02T04:24:23.263Z,10.56
2023-05-02T04:26:25.931Z,10.58
2023-05-02T04:28:29.905Z,10.61
2023-05-02T04:30:32.609Z,10.61
2023-05-02T04:32:35.237Z,10.65
2023-05-02T04:34:37.869Z,10.61
2023-05-02T04:36:40.457Z,10.62
2023-05-02T04:38:43.138Z,10.62
2023-05-02T04:40:45.936Z,10.66
2023-05-02T04:42:48.499Z,10.69
2023-05-02T04:44:52.391Z,10.69
2023-05-02T04:46:57.788Z,10.74
2023-05-02T04:49:00.345Z,10.74
2023-05-02T04:51:03.023Z,10.76
2023-05-02T04:53:05.618Z,10.77
2023-05-02T04:55:09.017Z,10.76
2023-05-02T04:57:11.572Z,10.77
2023-05-02T04:59:14.201Z,10.78
2023-05-02T05:01:18.171Z,10.86
2023-05-02T05:03:20.889Z,10.81
2023-05-02T05:05:23.493Z,10.85
2023-05-02T05:07:26.401Z,10.89
2023-05-02T05:09:28.933Z,10.81
2023-05-02T05:11:31.765Z,10.82
2023-05-02T05:13:34.417Z,10.84
2023-05-02T05:15:36.957Z,10.83
2023-05-02T05:17:40.908Z,10.87
2023-05-02T05:19:43.485Z,10.90
2023-05-02T05:21:46.099Z,10.93
2023-05-02T05:23:48.657Z,10.97
2023-05-02T05:25:51.328Z,11.01
2023-05-02T05:27:55.807Z,11.03
2023-05-02T05:29:58.612Z,11.04
2023-05-02T05:32:01.450Z,11.07
2023-05-02T05:34:05.485Z,11.09
2023-05-02T05:36:08.843Z,11.09
2023-05-02T05:38:11.464Z,11.14
2023-05-02T05:40:14.389Z,11.13
2023-05-02T05:42:16.988Z,11.12
2023-05-02T05:44:21.718Z,11.12
2023-05-02T05:46:24.450Z,11.13
2023-05-02T05:48:27.221Z,11.18
2023-05-02T05:50:31.150Z,11.15
2023-05-02T05:52:33.725Z,11.18
2023-05-02T05:54:36.320Z,11.18
2023-05-02T05:56:38.877Z,11.22
2023-05-02T05:58:42.715Z,11.24
2023-05-02T06:00:45.308Z,11.29
2023-05-02T06:02:47.976Z,11.32
2023-05-02T06:04:50.686Z,11.34
2023-05-02T06:06:55.262Z,11.37
2023-05-02T06:08:57.926Z,11.39
2023-05-02T06:11:00.574Z,11.38
2023-05-02T06:13:03.139Z,11.37
2023-05-02T06:15:06.654Z,11.36
2023-05-02T06:17:09.244Z,11.39
2023-05-02T06:19:11.814Z,11.51
2023-05-02T06:21:15.416Z,11.47
2023-05-02T06:23:19.372Z,11.46
2023-05-02T06:25:22.026Z,11.47
2023-05-02T06:27:24.608Z,11.49
2023-05-02T06:29:27.157Z,11.53
2023-05-02T06:31:29.803Z,11.54
2023-05-02T06:33:33.705Z,11.58
2023-05-02T06:35:36.331Z,11.61
2023-05-02T06:37:38.908Z,11.66
2023-05-02T06:39:42.810Z,11.63
2023-05-02T06:41:45.358Z,11.64
2023-05-02T06:43:47.925Z,11.71
2023-05-02T06:45:54.008Z,11.72
2023-05-02T06:47:56.603Z,11.81
2023-05-02T06:49:59.321Z,11.71
2023-05-02T06:52:02.051Z,11.87
2023-05-02T06:54:04.689Z,11.79
2023-05-02T06:56:09.056Z,11.77
2023-05-02T06:58:11.668Z,11.69
2023-05-02T07:00:15.891Z,11.66
2023-05-02T07:02:18.465Z,11.89
2023-05-02T07:04:21.065Z,11.74
2023-05-02T07:06:23.651Z,11.76
2023-05-02T07:08:26.339Z,11.80
2023-05-02T07:10:28.941Z,11.74
2023-05-02T07:12:32.869Z,11.73
2023-05-02T07:14:35.435Z,11.90
2023-05-02T07:16:38.089Z,11.77
2023-05-02T07:18:40.779Z,11.77
2023-05-02T07:20:43.345Z,11.77
2023-05-02T07:22:45.909Z,11.78
2023-05-02T07:24:48.602Z,11.78
2023-05-02T07:26:51.194Z,12.02
2023-05-02T07:28:55.132Z,11.92
2023-05-02T07:30:57.729Z,12.07
2023-05-02T07:33:00.420Z,11.96
2023-05-02T07:35:02.993Z,11.94
2023-05-02T07:37:05.689Z,11.94
2023-05-02T07:39:08.267Z,11.94
2023-05-02T07:41:10.884Z,12.15
2023-05-02T07:43:15.979Z,12.29
2023-05-02T07:45:20.206Z,12.31
2023-05-02T07:47:22.873Z,12.26
2023-05-02T07:49:25.579Z,12.14
2023-05-02T07:51:28.218Z,12.22
2023-05-02T07:53:30.833Z,12.11
2023-05-02T07:55:33.445Z,12.09
2023-05-02T07:57:35.997Z,12.07
2023-05-02T07:59:39.828Z,12.15
2023-05-02T08:01:44.261Z,12.12
2023-05-02T08:03:47.713Z,12.12
2023-05-02T08:05:50.356Z,12.22
2023-05-02T08:07:52.985Z,12.21
2023-05-02T08:09:55.690Z,12.18
2023-05-02T08:11:58.343Z,12.21
2023-05-02T08:14:00.945Z,12.18
2023-05-02T08:16:03.665Z,12.20
2023-05-02T08:18:07.756Z,12.25
2023-05-02T08:20:11.020Z,12.27
2023-05-02T08:22:13.643Z,12.22
2023-05-02T08:24:16.220Z,12.21
2023-05-02T08:26:19.053Z,12.24
2023-05-02T08:28:21.630Z,12.45
2023-05-02T08:30:24.540Z,12.46
2023-05-02T08:32:27.662Z,12.42
2023-05-02T08:34:33.739Z,12.45
2023-05-02T08:36:37.252Z,12.31
2023-05-02T08:38:39.901Z,12.41
2023-05-02T08:40:43.435Z,12.53
2023-05-02T08:42:47.216Z,12.61
2023-05-02T08:44:49.942Z,12.58
2023-05-02T08:46:55.280Z,12.67
2023-05-02T08:48:59.805Z,12.44
2023-05-02T08:51:04.337Z,12.42
2023-05-02T08:53:07.713Z,12.38
2023-05-02T08:55:11.652Z,12.36
2023-05-02T08:57:14.259Z,12.39
2023-05-02T08:59:16.813Z,12.40
2023-05-02T09:01:23.521Z,12.51
2023-05-02T09:03:31.364Z,12.47
2023-05-02T09:05:40.697Z,12.48
2023-05-02T09:07:49.423Z,12.49
2023-05-02T09:09:52.160Z,12.50
2023-05-02T09:11:54.950Z,12.51
2023-05-02T09:13:58.964Z,12.50
2023-05-02T09:16:03.242Z,12.50
2023-05-02T09:18:06.032Z,12.63
2023-05-02T09:20:10.054Z,12.70
2023-05-02T09:22:12.803Z,12.63
2023-05-02T09:24:18.624Z,12.64
2023-05-02T09:26:22.395Z,12.65
2023-05-02T09:28:39.655Z,12.64
2023-05-02T09:30:42.387Z,12.67
2023-05-02T09:32:51.191Z,12.77
2023-05-02T09:35:06.534Z,12.84
2023-05-02T09:37:10.346Z,12.96
2023-05-02T09:39:14.560Z,13.04
2023-05-02T09:41:19.946Z,13.11
2023-05-02T09:43:22.697Z,13.16
2023-05-02T09:45:26.615Z,13.32
2023-05-02T09:47:29.274Z,13.17
2023-05-02T09:49:42.156Z,13.16
2023-05-02T09:51:44.769Z,13.10
2023-05-02T09:53:48.018Z,13.10
2023-05-02T09:56:01.086Z,13.08
2023-05-02T09:58:05.924Z,13.15
2023-05-02T10:00:10.382Z,13.18
2023-05-02T10:02:13.460Z,13.20
2023-05-02T10:04:16.954Z,13.34
2023-05-02T10:06:20.465Z,13.45
2023-05-02T10:08:28.410Z,13.81
2023-05-02T10:10:33.930Z,13.54
2023-05-02T10:12:38.819Z,13.57
2023-05-02T10:14:50.137Z,13.45
2023-05-02T10:16:59.403Z,13.68
2023-05-02T10:19:08.580Z,13.52
2023-05-02T10:21:12.691Z,13.47
2023-05-02T10:23:16.651Z,13.49
2023-05-02T10:25:19.987Z,13.49
2023-05-02T10:27:25.684Z,13.57
2023-05-02T10:29:30.109Z,13.59
2023-05-02T10:31:37.577Z,13.72
2023-05-02T10:33:40.809Z,13.67
2023-05-02T10:35:46.571Z,13.68
2023-05-02T10:37:50.139Z,13.82
2023-05-02T10:39:53.057Z,13.74
2023-05-02T10:41:57.457Z,13.92
2023-05-02T10:44:02.108Z,14.02
2023-05-02T10:46:04.952Z,13.94
2023-05-02T10:48:20.094Z,13.98
2023-05-02T10:50:22.763Z,13.97
2023-05-02T10:52:32.924Z,14.07
2023-05-02T10:54:35.969Z,14.18
2023-05-02T10:57:09.339Z,14.18
2023-05-02T10:59:30.034Z,14.21
2023-05-02T11:01:39.832Z,14.23
2023-05-02T11:03:56.443Z,14.37
2023-05-02T11:06:08.199Z,14.55
2023-05-02T11:08:28.392Z,14.53
2023-05-02T11:10:31.424Z,14.65
2023-05-02T11:12:49.150Z,14.74
2023-05-02T11:14:51.828Z,14.79
2023-05-02T11:17:10.389Z,14.75
2023-05-02T11:19:12.947Z,14.76
2023-05-02T11:21:29.779Z,14.73
2023-05-02T11:23:32.514Z,14.73
2023-05-02T11:25:43.465Z,14.97
2023-05-02T11:29:55.125Z,14.93
2023-05-02T11:31:57.772Z,14.90
2023-05-02T11:34:01.355Z,14.92
2023-05-02T11:36:04.290Z,15.00
2023-05-02T11:38:12.413Z,15.03
2023-05-02T11:40:16.086Z,15.01
2023-05-02T11:42:32.282Z,15.07
2023-05-02T11:44:56.574Z,15.21
2023-05-02T11:46:59.176Z,15.28
2023-05-02T11:49:02.183Z,15.39
2023-05-02T11:51:07.049Z,15.30
2023-05-02T11:53:12.100Z,15.26
2023-05-02T11:55:16.410Z,15.23
2023-05-02T11:57:19.049Z,15.30
2023-05-02T11:59:21.650Z,15.29
2023-05-02T12:01:25.641Z,15.19
2023-05-02T12:03:30.928Z,15.13
2023-05-02T12:05:33.956Z,15.10
2023-05-02T12:07:37.954Z,15.07
2023-05-02T12:09:51.444Z,15.05
2023-05-02T12:11:54.810Z,15.06
2023-05-02T12:13:57.531Z,15.08
2023-05-02T12:16:00.581Z,15.10
2023-05-02T12:18:04.876Z,15.13
2023-05-02T12:20:09.960Z,15.13
2023-05-02T12:22:13.478Z,15.35
2023-05-02T12:24:16.376Z,15.25
2023-05-02T12:26:20.260Z,15.30
2023-05-02T12:28:23.912Z,15.35
2023-05-02T12:30:27.148Z,15.33
2023-05-02T12:32:31.501Z,15.36
2023-05-02T12:34:37.429Z,15.45
2023-05-02T12:36:44.959Z,15.46
2023-05-02T12:38:52.329Z,15.50
2023-05-02T12:40:57.674Z,15.57
2023-05-02T12:43:04.497Z,15.67
2023-05-02T12:45:18.100Z,15.93
2023-05-02T12:47:22.529Z,15.96
2023-05-02T12:49:25.331Z,16.08
2023-05-02T12:51:31.408Z,16.27
2023-05-02T12:53:41.578Z,16.45
2023-05-02T12:55:44.446Z,16.56
2023-05-02T12:57:47.590Z,16.71
2023-05-02T12:59:53.770Z,16.94
2023-05-02T13:01:57.256Z,17.04
2023-05-02T13:03:59.925Z,17.19
2023-05-02T13:06:02.637Z,17.47
2023-05-02T13:08:07.115Z,17.63
2023-05-02T13:10:11.130Z,17.63
2023-05-02T13:12:13.712Z,17.63
2023-05-02T13:14:16.300Z,17.70
2023-05-02T13:16:18.980Z,17.61
2023-05-02T13:18:24.371Z,17.47
2023-05-02T13:20:27.151Z,17.31
2023-05-02T13:22:29.908Z,17.17
2023-05-02T13:24:33.881Z,17.08
2023-05-02T13:26:36.448Z,17.00
2023-05-02T13:28:38.996Z,16.89
2023-05-02T13:30:42.008Z,16.78
2023-05-02T13:32:44.716Z,16.72
2023-05-02T13:34:47.312Z,16.66
2023-05-02T13:36:49.858Z,16.59
2023-05-02T13:39:09.894Z,16.56
2023-05-02T13:41:14.179Z,16.59
2023-05-02T13:43:16.868Z,16.73
2023-05-02T13:45:19.650Z,16.82
2023-05-02T13:47:22.731Z,16.81
2023-05-02T13:49:25.686Z,16.83
2023-05-02T13:51:28.337Z,16.83
2023-05-02T13:53:30.924Z,16.78
2023-05-02T13:55:33.478Z,16.77
2023-05-02T13:57:37.375Z,16.80
2023-05-02T13:59:39.954Z,16.81
2023-05-02T14:01:42.555Z,16.91
2023-05-02T14:03:45.422Z,17.30
2023-05-02T14:05:48.082Z,17.52
2023-05-02T14:07:50.628Z,17.76
2023-05-02T14:09:53.164Z,17.86
2023-05-02T14:11:56.565Z,17.84
2023-05-02T14:14:00.943Z,17.73
2023-05-02T14:16:03.823Z,17.62
2023-05-02T14:18:06.469Z,17.52
2023-05-02T14:20:10.537Z,17.44
2023-05-02T14:22:13.294Z,17.34
2023-05-02T14:24:16.475Z,17.24
2023-05-02T14:26:20.413Z,17.13
2023-05-02T14:28:23.375Z,17.07
2023-05-02T14:30:27.415Z,17.01
2023-05-02T14:32:30.033Z,17.05
2023-05-02T14:34:32.652Z,16.91
2023-05-02T14:36:35.298Z,16.88
2023-05-02T14:38:37.893Z,16.81
2023-05-02T14:40:40.634Z,16.73
2023-05-02T14:42:43.679Z,16.68
2023-05-02T14:44:46.268Z,16.64
2023-05-02T14:46:51.357Z,16.61
2023-05-02T14:48:53.954Z,16.56
2023-05-02T14:50:56.552Z,16.77
2023-05-02T14:52:59.106Z,17.04
2023-05-02T14:55:01.852Z,17.24
2023-05-02T14:57:04.891Z,17.50
2023-05-02T14:59:07.484Z,17.79
2023-05-02T15:01:16.651Z,17.96
2023-05-02T15:03:20.855Z,18.21
2023-05-02T15:05:23.647Z,18.38
2023-05-02T15:07:26.841Z,18.64
2023-05-02T15:09:30.142Z,18.80
2023-05-02T15:11:32.937Z,18.97
2023-05-02T15:13:35.493Z,19.01
2023-05-02T15:15:38.170Z,18.88
2023-05-02T15:17:40.735Z,18.69
2023-05-02T15:19:44.741Z,18.56
2023-05-02T15:21:47.313Z,18.42
2023-05-02T15:23:49.917Z,18.27
2023-05-02T15:25:52.566Z,18.25
2023-05-02T15:27:55.100Z,18.36
2023-05-02T15:29:58.182Z,18.49
2023-05-02T15:32:00.819Z,18.74
2023-05-02T15:34:03.704Z,18.83
2023-05-02T15:36:08.520Z,18.99
2023-05-02T15:38:11.091Z,19.14
2023-05-02T15:40:15.323Z,19.26
2023-05-02T15:42:17.876Z,19.40
2023-05-02T15:44:20.542Z,19.39
2023-05-02T15:46:23.180Z,19.41
2023-05-02T15:48:28.908Z,19.47
2023-05-02T15:50:31.871Z,19.44
2023-05-02T15:52:35.795Z,19.39
2023-05-02T15:54:39.277Z,19.37
2023-05-02T15:56:41.843Z,19.39
2023-05-02T15:58:44.424Z,19.56
2023-05-02T16:00:47.540Z,19.54
2023-05-02T16:02:50.200Z,19.56
2023-05-02T16:04:52.790Z,19.59
2023-05-02T16:06:55.547Z,19.60
2023-05-02T16:09:00.515Z,19.64
2023-05-02T16:11:04.246Z,19.65
2023-05-02T16:13:06.944Z,19.76
2023-05-02T16:15:10.121Z,19.76
2023-05-02T16:17:12.658Z,19.76
2023-05-02T16:19:15.263Z,19.78
2023-05-02T16:21:17.813Z,19.68
2023-05-02T16:23:22.067Z,19.53
2023-05-02T16:25:27.034Z,19.39
2023-05-02T16:27:29.681Z,19.22
2023-05-02T16:29:35.167Z,19.23
2023-05-02T16:31:37.838Z,19.01
2023-05-02T16:33:40.608Z,18.87
2023-05-02T16:35:43.218Z,18.83
2023-05-02T16:37:45.809Z,18.95
2023-05-02T16:39:48.494Z,18.84
2023-05-02T16:41:52.415Z,18.84
2023-05-02T16:43:55.141Z,18.84
2023-05-02T16:46:02.341Z,18.83
2023-05-02T16:48:05.302Z,18.83
2023-05-02T16:50:09.294Z,18.84
2023-05-02T16:52:11.963Z,18.82
2023-05-02T16:54:14.515Z,18.82
2023-05-02T16:56:17.081Z,18.83
2023-05-02T16:58:21.609Z,18.84
2023-05-02T17:00:24.397Z,18.90
2023-05-02T17:02:27.085Z,18.82
2023-05-02T17:04:30.058Z,18.73
2023-05-02T17:06:32.700Z,18.68
2023-05-02T17:08:35.381Z,18.61
2023-05-02T17:10:38.159Z,18.54
2023-05-02T17:12:40.736Z,18.47
2023-05-02T17:14:44.635Z,18.43
2023-05-02T17:16:47.298Z,18.38
2023-05-02T17:18:49.867Z,18.31
2023-05-02T17:20:52.831Z,18.29
2023-05-02T17:22:55.859Z,18.26
2023-05-02T17:24:58.657Z,18.20
2023-05-02T17:27:02.814Z,18.20
2023-05-02T17:29:05.358Z,18.10
2023-05-02T17:31:09.613Z,18.06
2023-05-02T17:33:12.263Z,17.98
2023-05-02T17:35:16.313Z,17.93
2023-05-02T17:37:18.879Z,17.86
2023-05-02T17:39:21.436Z,17.83
2023-05-02T17:41:24.001Z,17.75
2023-05-02T17:43:26.571Z,17.73
2023-05-02T17:45:29.843Z,17.67
2023-05-02T17:47:33.759Z,17.63
2023-05-02T17:49:37.096Z,17.58
2023-05-02T17:51:39.739Z,17.52
2023-05-02T17:53:42.596Z,17.49
2023-05-02T17:55:45.240Z,17.52
2023-05-02T17:57:48.538Z,17.42
2023-05-02T17:59:53.671Z,17.35
2023-05-02T18:01:56.386Z,17.26
2023-05-02T18:04:00.920Z,17.23
2023-05-02T18:06:03.679Z,17.14
2023-05-02T18:08:07.207Z,17.10
2023-05-02T18:10:09.860Z,17.05
2023-05-02T18:12:12.415Z,17.02
2023-05-02T18:14:14.980Z,16.95
2023-05-02T18:16:17.684Z,16.89
2023-05-02T18:18:20.379Z,16.86
2023-05-02T18:20:24.288Z,16.80
2023-05-02T18:22:28.124Z,16.78
2023-05-02T18:24:31.985Z,16.72
2023-05-02T18:26:34.552Z,16.66
2023-05-02T18:28:37.089Z,16.62
2023-05-02T18:30:40.352Z,16.57
2023-05-02T18:32:42.982Z,16.52
2023-05-02T18:34:45.717Z,16.50
2023-05-02T18:36:49.616Z,16.45
2023-05-02T18:38:52.449Z,16.41
2023-05-02T18:40:55.022Z,16.37
2023-05-02T18:42:57.586Z,16.31
2023-05-02T18:45:00.532Z,16.27
2023-05-02T18:47:03.469Z,16.21
2023-05-02T18:49:08.938Z,16.17
2023-05-02T18:51:11.501Z,16.14
2023-05-02T18:53:15.498Z,16.10
2023-05-02T18:55:18.328Z,16.01
2023-05-02T18:57:21.532Z,15.89
2023-05-02T18:59:24.107Z,15.75
2023-05-02T19:01:26.750Z,15.66
2023-05-02T19:03:30.452Z,15.58
2023-05-02T19:05:34.708Z,15.51
2023-05-02T19:07:38.457Z,15.45
2023-05-02T19:09:42.692Z,15.44
2023-05-02T19:11:45.351Z,15.36
2023-05-02T19:13:50.897Z,15.30
2023-05-02T19:15:53.639Z,15.22
2023-05-02T19:17:56.455Z,15.18
2023-05-02T19:19:59.205Z,15.15
2023-05-02T19:22:01.736Z,15.11
2023-05-02T19:24:04.748Z,15.09
2023-05-02T19:26:13.009Z,15.04
2023-05-02T19:28:16.839Z,15.03
2023-05-02T19:30:21.519Z,15.00
2023-05-02T19:32:25.057Z,14.95
2023-05-02T19:34:28.172Z,14.89
2023-05-02T19:36:31.122Z,14.86
2023-05-02T19:38:34.190Z,14.77
2023-05-02T19:40:36.765Z,14.76
2023-05-02T19:42:40.761Z,14.70
2023-05-02T19:44:43.299Z,14.64
2023-05-02T19:46:46.163Z,14.55
2023-05-02T19:48:48.765Z,14.51
2023-05-02T19:50:51.404Z,14.52
2023-05-02T19:52:53.973Z,14.47
2023-05-02T19:54:56.601Z,14.57
2023-05-02T19:56:59.215Z,14.60
2023-05-02T19:59:03.253Z,14.53
2023-05-02T20:01:05.867Z,14.26
2023-05-02T20:03:08.746Z,14.16
2023-05-02T20:05:11.470Z,14.05
2023-05-02T20:07:14.135Z,13.96
2023-05-02T20:09:17.197Z,14.01
2023-05-02T20:11:19.890Z,13.88
2023-05-02T20:13:22.520Z,13.85
2023-05-02T20:15:30.034Z,13.73
2023-05-02T20:17:32.671Z,13.65
2023-05-02T20:19:35.317Z,13.62
2023-05-02T20:21:40.239Z,13.54
2023-05-02T20:23:43.558Z,13.55
2023-05-02T20:25:46.399Z,13.60
2023-05-02T20:27:49.031Z,13.50
2023-05-02T20:29:51.856Z,13.52
2023-05-02T20:31:56.649Z,13.51
2023-05-02T20:34:00.305Z,13.37
2023-05-02T20:36:02.954Z,13.32
2023-05-02T20:38:05.532Z,13.22
2023-05-02T20:40:09.909Z,13.16
2023-05-02T20:42:12.537Z,13.15
2023-05-02T20:44:16.971Z,13.26
2023-05-02T20:46:20.742Z,13.16
2023-05-02T20:48:24.761Z,13.19
2023-05-02T20:50:27.348Z,13.13
2023-05-02T20:52:30.104Z,13.18
2023-05-02T20:54:32.679Z,13.06
2023-05-02T20:56:35.252Z,13.02
2023-05-02T20:58:37.830Z,12.98
2023-05-02T21:00:41.085Z,12.96
2023-05-02T21:02:43.705Z,12.91
2023-05-02T21:04:47.690Z,13.06
2023-05-02T21:06:50.386Z,12.97
2023-05-02T21:08:55.099Z,12.85
2023-05-02T21:10:57.675Z,12.80
2023-05-02T21:13:00.267Z,12.74
2023-05-02T21:15:03.079Z,12.71
2023-05-02T21:17:05.749Z,12.74
2023-05-02T21:19:08.438Z,12.68
2023-05-02T21:21:12.415Z,12.61
2023-05-02T21:23:14.971Z,12.59
2023-05-02T21:25:17.626Z,12.65
2023-05-02T21:27:20.299Z,12.61
2023-05-02T21:29:22.930Z,12.57
2023-05-02T21:31:25.520Z,12.51
2023-05-02T21:33:28.114Z,12.51
2023-05-02T21:35:33.946Z,12.54
2023-05-02T21:37:37.891Z,12.56
2023-05-02T21:39:40.597Z,12.65
2023-05-02T21:41:43.203Z,12.58
2023-05-02T21:43:45.914Z,12.58
2023-05-02T21:45:49.669Z,12.56
2023-05-02T21:47:52.749Z,12.53
2023-05-02T21:49:56.804Z,12.54
2023-05-02T21:51:59.409Z,12.54
2023-05-02T21:54:03.476Z,12.59
2023-05-02T21:56:07.992Z,12.60
2023-05-02T21:58:12.858Z,12.57
2023-05-02T22:00:16.140Z,12.54
2023-05-02T22:02:18.754Z,12.42
2023-05-02T22:04:21.361Z,12.33
2023-05-02T22:06:23.943Z,12.30
2023-05-02T22:08:27.245Z,12.23
2023-05-02T22:10:31.359Z,12.20
2023-05-02T22:12:33.906Z,12.16
2023-05-02T22:14:44.605Z,12.14
2023-05-02T22:16:48.167Z,12.16
2023-05-02T22:18:50.755Z,12.13
2023-05-02T22:20:54.091Z,12.17
2023-05-02T22:22:56.676Z,12.12
2023-05-02T22:24:59.264Z,12.09
2023-05-02T22:27:03.211Z,12.09
2023-05-02T22:29:06.752Z,11.92
2023-05-02T22:31:09.343Z,11.86
2023-05-02T22:33:12.808Z,11.78
2023-05-02T22:35:15.728Z,11.76
2023-05-02T22:37:18.294Z,11.72
2023-05-02T22:39:21.564Z,11.64
2023-05-02T22:41:24.177Z,11.78
2023-05-02T22:43:28.148Z,11.72
2023-05-02T22:45:30.734Z,11.62
2023-05-02T22:47:33.423Z,11.70
2023-05-02T22:49:36.057Z,11.72
2023-05-02T22:51:40.109Z,11.71
2023-05-02T22:53:42.893Z,11.65
2023-05-02T22:55:45.454Z,11.47
2023-05-02T22:57:47.983Z,11.35
2023-05-02T22:59:51.973Z,11.36
2023-05-02T23:01:54.562Z,11.30
2023-05-02T23:03:57.319Z,11.30
2023-05-02T23:06:00.148Z,11.29
2023-05-02T23:08:02.745Z,11.28
2023-05-02T23:10:06.356Z,11.24
2023-05-02T23:12:08.967Z,11.26
2023-05-02T23:14:11.528Z,11.22
2023-05-02T23:16:15.550Z,11.23
2023-05-02T23:18:18.438Z,11.27
2023-05-02T23:20:23.065Z,11.31
2023-05-02T23:22:26.002Z,11.24
2023-05-02T23:24:29.070Z,11.21
2023-05-02T23:26:31.615Z,11.21
2023-05-02T23:28:34.187Z,11.23
2023-05-02T23:30:39.239Z,11.14
2023-05-02T23:32:43.202Z,11.14
2023-05-02T23:34:46.100Z,11.13
2023-05-02T23:36:49.662Z,11.23
2023-05-02T23:38:52.311Z,11.26
2023-05-02T23:40:55.259Z,11.18
2023-05-02T23:42:58.058Z,11.01
2023-05-02T23:45:00.719Z,10.99
2023-05-02T23:47:03.327Z,11.13
2023-05-02T23:49:07.324Z,11.04
2023-05-02T23:51:09.867Z,10.86
2023-05-02T23:53:12.443Z,10.81
2023-05-02T23:55:14.985Z,10.81
2023-05-02T23:57:17.556Z,10.85
2023-05-02T23:59:20.173Z,10.88
